createdAt,value
2019-06-10T00:00:04.820Z,101761.98
2019-06-10T00:02:37.613Z,101761.52
2019-06-10T00:05:10.966Z,101760.66
2019-06-10T00:07:43.418Z,101755.77
2019-06-10T00:10:15.727Z,101755.34
2019-06-10T00:12:47.963Z,101754.52
2019-06-10T00:15:21.355Z,101744.01
2019-06-10T00:18:17.270Z,101742.38
2019-06-10T00:20:27.823Z,101743.28
2019-06-10T00:23:02.554Z,101738.91
2019-06-10T00:25:34.170Z,101738.02
2019-06-10T00:28:07.474Z,101737.12
2019-06-10T00:30:41.157Z,101739.39
2019-06-10T00:33:13.923Z,101731.13
2019-06-10T00:35:46.200Z,101734.19
2019-06-10T00:38:18.452Z,101735.98
2019-06-10T00:40:51.386Z,101737.04
2019-06-10T00:43:23.943Z,101733.15
2019-06-10T00:45:56.153Z,101719.84
2019-06-10T00:48:29.354Z,101717.45
2019-06-10T00:51:04.090Z,101710.82
2019-06-10T00:53:36.412Z,101693.98
2019-06-10T00:56:12.550Z,101693.33
2019-06-10T00:58:43.106Z,101684.81
2019-06-10T01:01:15.172Z,101680.81
2019-06-10T01:03:47.468Z,101677.65
2019-06-10T01:06:21.372Z,101663.91
2019-06-10T01:08:54.715Z,101661.06
2019-06-10T01:11:27.427Z,101659.52
2019-06-10T01:14:01.454Z,101659.86
2019-06-10T01:16:33.860Z,101652.88
2019-06-10T01:19:06.079Z,101647.20
2019-06-10T01:21:38.429Z,101651.97
2019-06-10T01:24:14.429Z,101644.47
2019-06-10T01:26:45.652Z,101638.23
2019-06-10T01:29:18.179Z,101640.39
2019-06-10T01:31:51.238Z,101641.66
2019-06-10T01:34:23.715Z,101639.02
2019-06-10T01:36:55.939Z,101645.45
2019-06-10T01:39:30.701Z,101638.08
2019-06-10T01:42:02.097Z,101637.17
2019-06-10T01:44:34.298Z,101637.95
2019-06-10T01:47:06.793Z,101631.62
2019-06-10T01:49:41.106Z,101632.42
2019-06-10T01:52:15.103Z,101629.33
2019-06-10T01:54:46.856Z,101630.17
2019-06-10T01:57:21.240Z,101621.73
2019-06-10T01:59:53.001Z,101616.77
2019-06-10T02:02:25.237Z,101617.42
2019-06-10T02:04:57.451Z,101613.34
2019-06-10T02:07:31.805Z,101610.67
2019-06-10T02:10:03.597Z,101604.11
2019-06-10T02:12:35.825Z,101597.53
2019-06-10T02:15:08.095Z,101595.80
2019-06-10T02:17:41.835Z,101594.99
2019-06-10T02:20:16.528Z,101591.41
2019-06-10T02:22:48.022Z,101594.91
2019-06-10T02:25:21.695Z,101590.20
2019-06-10T02:27:54.201Z,101589.80
2019-06-10T02:30:40.398Z,101585.44
2019-06-10T02:33:02.551Z,101583.72
2019-06-10T02:35:43.981Z,101577.65
2019-06-10T02:38:08.228Z,101578.55
2019-06-10T02:40:43.206Z,101573.88
2019-06-10T02:43:17.992Z,101572.98
2019-06-10T02:45:48.263Z,101566.78
2019-06-10T02:48:24.674Z,101554.55
2019-06-10T02:50:54.546Z,101548.42
2019-06-10T02:53:30.693Z,101550.14
2019-06-10T02:56:03.989Z,101533.44
2019-06-10T02:58:39.019Z,101536.48
2019-06-10T03:01:08.610Z,101539.93
2019-06-10T03:03:45.805Z,101530.67
2019-06-10T03:06:19.864Z,101514.88
2019-06-10T03:08:54.589Z,101514.45
2019-06-10T03:11:29.725Z,101513.99
2019-06-10T03:14:02.630Z,101505.27
2019-06-10T03:16:34.973Z,101504.92
2019-06-10T03:19:07.196Z,101504.50
2019-06-10T03:21:39.401Z,101502.89
2019-06-10T03:24:13.179Z,101513.86
2019-06-10T03:26:45.660Z,101506.47
2019-06-10T03:29:18.559Z,101507.02
2019-06-10T03:31:54.773Z,101514.17
2019-06-10T03:34:33.678Z,101515.48
2019-06-10T03:36:58.766Z,101512.06
2019-06-10T03:39:32.228Z,101506.83
2019-06-10T03:42:04.531Z,101508.20
2019-06-10T03:44:36.782Z,101499.42
2019-06-10T03:47:09.007Z,101500.07
2019-06-10T03:49:52.368Z,101498.74
2019-06-10T03:52:15.153Z,101500.07
2019-06-10T03:54:47.397Z,101501.01
2019-06-10T03:57:19.619Z,101508.89
2019-06-10T03:59:53.889Z,101507.63
2019-06-10T04:02:28.504Z,101503.75
2019-06-10T04:05:02.772Z,101497.14
2019-06-10T04:07:34.801Z,101503.63
2019-06-10T04:10:06.853Z,101493.02
2019-06-10T04:12:39.072Z,101491.29
2019-06-10T04:15:12.257Z,101491.61
2019-06-10T04:17:44.808Z,101481.05
2019-06-10T04:20:17.735Z,101483.97
2019-06-10T04:22:52.193Z,101484.70
2019-06-10T04:25:26.650Z,101486.83
2019-06-10T04:27:57.935Z,101482.78
2019-06-10T04:30:32.372Z,101483.14
2019-06-10T04:33:05.177Z,101475.20
2019-06-10T04:35:37.257Z,101473.89
2019-06-10T04:38:13.082Z,101473.00
2019-06-10T04:40:45.622Z,101468.11
2019-06-10T04:43:18.854Z,101472.36
2019-06-10T04:45:52.786Z,101466.33
2019-06-10T04:48:26.549Z,101458.52
2019-06-10T04:50:59.349Z,101459.77
2019-06-10T04:53:33.058Z,101450.99
2019-06-10T04:56:05.548Z,101451.01
2019-06-10T04:58:37.781Z,101453.68
2019-06-10T05:01:12.114Z,101454.64
2019-06-10T05:03:44.190Z,101450.08
2019-06-10T05:06:16.416Z,101437.98
2019-06-10T05:08:48.785Z,101437.23
2019-06-10T05:11:23.717Z,101435.15
2019-06-10T05:13:54.934Z,101431.80
2019-06-10T05:16:30.521Z,101435.89
2019-06-10T05:19:03.618Z,101426.44
2019-06-10T05:21:35.060Z,101432.83
2019-06-10T05:24:07.306Z,101432.23
2019-06-10T05:26:42.035Z,101430.73
2019-06-10T05:29:13.469Z,101433.81
2019-06-10T05:31:45.687Z,101434.70
2019-06-10T05:34:17.903Z,101431.58
2019-06-10T05:36:52.415Z,101428.67
2019-06-10T05:39:27.058Z,101427.36
2019-06-10T05:41:58.005Z,101424.72
2019-06-10T05:44:30.236Z,101423.41
2019-06-10T05:47:03.589Z,101427.35
2019-06-10T05:49:36.371Z,101433.90
2019-06-10T05:52:08.624Z,101430.91
2019-06-10T05:54:42.988Z,101441.55
2019-06-10T05:57:14.874Z,101443.37
2019-06-10T05:59:47.100Z,101433.41
2019-06-10T06:02:19.360Z,101436.14
2019-06-10T06:04:53.047Z,101435.84
2019-06-10T06:07:25.536Z,101430.79
2019-06-10T06:09:57.745Z,101425.58
2019-06-10T06:12:29.977Z,101428.81
2019-06-10T06:15:02.510Z,101426.34
2019-06-10T06:17:35.767Z,101420.31
2019-06-10T06:20:08.005Z,101427.38
2019-06-10T06:22:42.670Z,101414.20
2019-06-10T06:25:15.474Z,101419.52
2019-06-10T06:27:48.032Z,101419.23
2019-06-10T06:30:22.589Z,101414.96
2019-06-10T06:32:54.241Z,101409.33
2019-06-10T06:35:26.482Z,101414.27
2019-06-10T06:37:58.696Z,101406.83
2019-06-10T06:40:34.274Z,101398.09
2019-06-10T06:43:04.847Z,101394.59
2019-06-10T06:45:37.767Z,101400.30
2019-06-10T06:48:12.319Z,101403.34
2019-06-10T06:51:00.096Z,101391.44
2019-06-10T06:53:28.850Z,101393.62
2019-06-10T06:55:55.869Z,101390.51
2019-06-10T06:58:26.796Z,101388.72
2019-06-10T07:01:07.411Z,101388.72
2019-06-10T07:03:35.356Z,101389.61
2019-06-10T07:06:07.194Z,101378.67
2019-06-10T07:08:41.489Z,101371.25
2019-06-10T07:11:13.878Z,101366.41
2019-06-10T07:13:47.010Z,101369.52
2019-06-10T07:16:19.281Z,101369.13
2019-06-10T07:18:54.006Z,101375.34
2019-06-10T07:21:25.461Z,101356.88
2019-06-10T07:23:57.708Z,101366.58
2019-06-10T07:26:34.118Z,101360.00
2019-06-10T07:29:05.367Z,101359.09
2019-06-10T07:31:38.454Z,101352.48
2019-06-10T07:34:12.914Z,101358.69
2019-06-10T07:36:46.481Z,101360.92
2019-06-10T07:39:18.957Z,101351.70
2019-06-10T07:41:52.840Z,101351.70
2019-06-10T07:44:25.549Z,101355.67
2019-06-10T07:46:57.787Z,101346.45
2019-06-10T07:49:32.157Z,101338.92
2019-06-10T07:52:15.855Z,101349.98
2019-06-10T07:54:39.217Z,101338.52
2019-06-10T07:57:12.963Z,101340.30
2019-06-10T07:59:46.003Z,101334.12
2019-06-10T08:02:18.501Z,101318.25
2019-06-10T08:04:53.904Z,101320.44
2019-06-10T08:07:24.920Z,101314.70
2019-06-10T08:09:57.198Z,101319.58
2019-06-10T08:12:29.418Z,101317.77
2019-06-10T08:15:02.782Z,101323.90
2019-06-10T08:17:36.110Z,101325.23
2019-06-10T08:20:10.026Z,101317.74
2019-06-10T08:22:50.876Z,101315.58
2019-06-10T08:25:16.347Z,101310.25
2019-06-10T08:27:49.368Z,101315.98
2019-06-10T08:30:26.618Z,101314.16
2019-06-10T08:32:56.581Z,101307.98
2019-06-10T08:35:39.468Z,101304.00
2019-06-10T08:38:02.865Z,101289.42
2019-06-10T08:40:38.286Z,101292.03
2019-06-10T08:43:13.159Z,101294.66
2019-06-10T08:45:47.044Z,101291.10
2019-06-10T08:48:18.645Z,101301.58
2019-06-10T08:50:53.136Z,101297.47
2019-06-10T08:53:24.862Z,101299.55
2019-06-10T08:55:57.117Z,101294.91
2019-06-10T08:58:29.317Z,101292.09
2019-06-10T09:01:02.302Z,101293.13
2019-06-10T09:03:36.298Z,101280.98
2019-06-10T09:06:08.504Z,101282.57
2019-06-10T09:08:41.914Z,101276.83
2019-06-10T09:11:14.772Z,101276.83
2019-06-10T09:13:48.321Z,101273.41
2019-06-10T09:16:23.014Z,101274.37
2019-06-10T09:18:55.631Z,101259.77
2019-06-10T09:21:27.918Z,101254.06
2019-06-10T09:24:03.566Z,101253.13
2019-06-10T09:26:34.100Z,101252.25
2019-06-10T09:29:06.528Z,101246.50
2019-06-10T09:31:39.455Z,101255.27
2019-06-10T09:34:12.957Z,101242.03
2019-06-10T09:36:47.970Z,101233.61
2019-06-10T09:39:19.272Z,101235.88
2019-06-10T09:42:00.015Z,101225.56
2019-06-10T09:44:25.705Z,101225.56
2019-06-10T09:47:00.342Z,101225.81
2019-06-10T09:49:33.489Z,101217.09
2019-06-10T09:52:05.900Z,101220.64
2019-06-10T09:54:38.155Z,101222.01
2019-06-10T09:57:12.694Z,101224.66
2019-06-10T09:59:47.772Z,101218.45
2019-06-10T10:02:18.311Z,101220.56
2019-06-10T10:04:54.819Z,101206.69
2019-06-10T10:07:24.600Z,101207.83
2019-06-10T10:09:57.409Z,101201.10
2019-06-10T10:12:32.184Z,101212.72
2019-06-10T10:15:22.521Z,101245.32
2019-06-10T10:17:37.706Z,101204.94
2019-06-10T10:20:12.222Z,101208.45
2019-06-10T10:22:45.688Z,101205.91
2019-06-10T10:25:18.073Z,101208.53
2019-06-10T10:27:53.161Z,101202.38
2019-06-10T10:30:24.595Z,101195.73
2019-06-10T10:32:56.942Z,101192.63
2019-06-10T10:35:29.178Z,101196.77
2019-06-10T10:38:03.883Z,101190.56
2019-06-10T10:40:35.537Z,101179.41
2019-06-10T10:43:24.436Z,101184.61
2019-06-10T10:45:47.364Z,101183.67
2019-06-10T10:48:17.888Z,101182.28
2019-06-10T10:50:55.848Z,101187.14
2019-06-10T10:53:26.169Z,101175.26
2019-06-10T10:55:58.411Z,101171.91
2019-06-10T10:58:32.511Z,101168.92
2019-06-10T11:01:05.000Z,101163.09
2019-06-10T11:03:37.429Z,101166.36
2019-06-10T11:06:12.626Z,101155.28
2019-06-10T11:08:45.286Z,101159.35
2019-06-10T11:11:18.194Z,101154.45
2019-06-10T11:13:54.815Z,101161.47
2019-06-10T11:16:26.017Z,101146.30
2019-06-10T11:18:58.275Z,101150.42
2019-06-10T11:21:32.892Z,101150.67
2019-06-10T11:24:04.933Z,101145.76
2019-06-10T11:26:37.299Z,101143.44
2019-06-10T11:29:09.725Z,101132.42
2019-06-10T11:31:44.316Z,101130.69
2019-06-10T11:34:19.656Z,101131.18
2019-06-10T11:36:53.550Z,101126.09
2019-06-10T11:39:24.831Z,101110.69
2019-06-10T11:41:59.361Z,101108.35
2019-06-10T11:44:33.847Z,101096.95
2019-06-10T11:47:05.540Z,101089.69
2019-06-10T11:49:37.776Z,101082.97
2019-06-10T11:52:12.594Z,101086.25
2019-06-10T11:54:55.151Z,101078.66
2019-06-10T11:57:18.547Z,101074.16
2019-06-10T11:59:53.228Z,101074.48
2019-06-10T12:02:27.197Z,101085.17
2019-06-10T12:05:03.519Z,101087.89
2019-06-10T12:07:35.063Z,101086.00
2019-06-10T12:10:07.929Z,101091.48
2019-06-10T12:12:43.199Z,101087.50
2019-06-10T12:15:15.216Z,101085.24
2019-06-10T12:17:55.530Z,101086.84
2019-06-10T12:20:22.980Z,101077.70
2019-06-10T12:22:58.230Z,101078.55
2019-06-10T12:25:36.766Z,101066.70
2019-06-10T12:28:07.168Z,101072.41
2019-06-10T12:30:37.649Z,101071.55
2019-06-10T12:33:09.856Z,101061.66
2019-06-10T12:35:42.328Z,101054.20
2019-06-10T12:38:14.789Z,101049.64
2019-06-10T12:40:47.052Z,101052.27
2019-06-10T12:43:19.252Z,101059.53
2019-06-10T12:45:53.966Z,101063.66
2019-06-10T12:48:25.834Z,101054.66
2019-06-10T12:51:00.292Z,101055.70
2019-06-10T12:53:32.674Z,101056.31
2019-06-10T12:56:09.983Z,101066.44
2019-06-10T12:58:39.219Z,101055.30
2019-06-10T13:01:11.620Z,101047.66
2019-06-10T13:03:43.981Z,101053.00
2019-06-10T13:06:16.271Z,101054.48
2019-06-10T13:08:48.490Z,101054.03
2019-06-10T13:11:23.238Z,101056.67
2019-06-10T13:13:56.137Z,101052.31
2019-06-10T13:16:28.566Z,101050.91
2019-06-10T13:19:03.281Z,101046.52
2019-06-10T13:21:34.776Z,101043.64
2019-06-10T13:24:07.912Z,101042.39
2019-06-10T13:26:42.994Z,101037.04
2019-06-10T13:29:17.571Z,101033.31
2019-06-10T13:31:48.207Z,101016.20
2019-06-10T13:34:22.143Z,101020.77
2019-06-10T13:36:54.442Z,101018.60
2019-06-10T13:39:27.735Z,101019.41
2019-06-10T13:42:03.233Z,101016.02
2019-06-10T13:44:34.104Z,101014.66
2019-06-10T13:47:09.904Z,101012.77
2019-06-10T13:49:42.690Z,101002.95
2019-06-10T13:52:16.761Z,101005.95
2019-06-10T13:54:48.122Z,101008.41
2019-06-10T13:57:22.866Z,101010.72
2019-06-10T13:59:54.264Z,100996.86
2019-06-10T14:02:26.546Z,100997.67
2019-06-10T14:05:00.082Z,100997.04
2019-06-10T14:07:33.934Z,100992.68
2019-06-10T14:10:09.623Z,100991.20
2019-06-10T14:12:40.135Z,100990.97
2019-06-10T14:15:17.016Z,100987.89
2019-06-10T14:17:46.311Z,100987.41
2019-06-10T14:20:22.987Z,100984.25
2019-06-10T14:22:54.748Z,100977.73
2019-06-10T14:25:27.016Z,100981.93
2019-06-10T14:28:03.154Z,100973.64
2019-06-10T14:30:33.982Z,100965.99
2019-06-10T14:33:07.409Z,100971.80
2019-06-10T14:35:39.733Z,100977.38
2019-06-10T14:38:15.442Z,100974.97
2019-06-10T14:40:46.562Z,100969.61
2019-06-10T14:43:18.975Z,100972.37
2019-06-10T14:45:53.420Z,100965.69
2019-06-10T14:48:25.126Z,100964.77
2019-06-10T14:50:57.339Z,100963.94
2019-06-10T14:53:29.575Z,100968.94
2019-06-10T14:56:03.578Z,100967.86
2019-06-10T14:58:35.757Z,100971.19
2019-06-10T15:01:11.416Z,100966.12
2019-06-10T15:03:42.923Z,100968.66
2019-06-10T15:06:15.675Z,100964.62
2019-06-10T15:08:47.949Z,100958.77
2019-06-10T15:11:23.200Z,100958.50
2019-06-10T15:13:54.167Z,100958.73
2019-06-10T15:16:26.421Z,100960.27
2019-06-10T15:19:12.009Z,100948.45
2019-06-10T15:21:32.708Z,100940.65
2019-06-10T15:24:05.006Z,100939.75
2019-06-10T15:26:37.224Z,100944.81
2019-06-10T15:29:09.516Z,100937.36
2019-06-10T15:31:42.883Z,100932.90
2019-06-10T15:34:17.029Z,100930.95
2019-06-10T15:36:49.174Z,100927.56
2019-06-10T15:39:23.954Z,100924.41
2019-06-10T15:41:55.562Z,100920.27
2019-06-10T15:44:47.957Z,100915.75
2019-06-10T15:47:03.106Z,100924.69
2019-06-10T15:49:35.699Z,100915.89
2019-06-10T15:52:07.969Z,100913.44
2019-06-10T15:54:42.544Z,100910.42
2019-06-10T15:57:31.453Z,100906.20
2019-06-10T15:59:48.265Z,100910.48
2019-06-10T16:02:21.896Z,100912.23
2019-06-10T16:04:54.429Z,100915.45
2019-06-10T16:07:26.810Z,100924.92
2019-06-10T16:09:59.083Z,100907.69
2019-06-10T16:12:33.020Z,100915.33
2019-06-10T16:15:05.415Z,100912.94
2019-06-10T16:17:37.658Z,100912.78
2019-06-10T16:20:12.620Z,100906.02
2019-06-10T16:22:43.879Z,100903.88
2019-06-10T16:25:16.100Z,100903.98
2019-06-10T16:27:51.115Z,100903.69
2019-06-10T16:30:23.215Z,100909.17
2019-06-10T16:32:56.376Z,100904.48
2019-06-10T16:35:28.620Z,100911.75
2019-06-10T16:38:00.846Z,100910.80
2019-06-10T16:40:33.095Z,100902.78
2019-06-10T16:43:05.360Z,100881.53
2019-06-10T16:45:37.551Z,100881.53
2019-06-10T16:48:09.804Z,100888.14
2019-06-10T16:50:42.616Z,100886.91
2019-06-10T16:53:15.061Z,100883.00
2019-06-10T16:55:47.302Z,100873.12
2019-06-10T16:58:21.168Z,100866.80
2019-06-10T17:00:53.503Z,100864.22
2019-06-10T17:03:27.286Z,100872.05
2019-06-10T17:05:59.709Z,100866.20
2019-06-10T17:08:33.396Z,100860.58
2019-06-10T17:11:06.014Z,100856.89
2019-06-10T17:13:38.236Z,100856.89
2019-06-10T17:16:12.544Z,100860.81
2019-06-10T17:18:45.523Z,100861.91
2019-06-10T17:21:19.394Z,100864.27
2019-06-10T17:23:52.579Z,100853.25
2019-06-10T17:26:30.649Z,100875.56
2019-06-10T17:28:59.341Z,100875.56
2019-06-10T17:31:35.034Z,100885.83
2019-06-10T17:34:06.034Z,100885.83
2019-06-10T17:36:38.326Z,100889.62
2019-06-10T17:39:12.523Z,100883.52
2019-06-10T17:41:44.646Z,100887.66
2019-06-10T17:44:16.948Z,100887.66
2019-06-10T17:46:49.270Z,100889.68
2019-06-10T17:49:23.781Z,100893.34
2019-06-10T17:51:55.813Z,100899.97
2019-06-10T17:54:28.276Z,100899.91
2019-06-10T17:57:02.515Z,100910.91
2019-06-10T17:59:35.515Z,100913.57
2019-06-10T18:02:08.066Z,100913.57
2019-06-10T18:04:42.053Z,100912.91
2019-06-10T18:07:14.483Z,100914.23
2019-06-10T18:09:46.759Z,100919.43
2019-06-10T18:12:19.003Z,100918.55
2019-06-10T18:14:52.479Z,100913.35
2019-06-10T18:17:25.992Z,100911.70
2019-06-10T18:19:58.891Z,100921.14
2019-06-10T18:22:33.456Z,100918.98
2019-06-10T18:25:05.094Z,100924.05
2019-06-10T18:27:37.352Z,100938.36
2019-06-10T18:30:11.487Z,100934.44
2019-06-10T18:32:44.692Z,100933.55
2019-06-10T18:35:16.893Z,100928.35
2019-06-10T18:40:21.425Z,100926.72
2019-06-10T18:42:53.836Z,100918.37
2019-06-10T18:45:26.147Z,100920.58
2019-06-10T18:47:59.420Z,100920.63
2019-06-10T18:50:33.391Z,100910.11
2019-06-10T18:53:06.511Z,100911.92
2019-06-10T18:55:40.570Z,100919.91
2019-06-10T18:58:12.857Z,100923.09
2019-06-10T19:00:59.097Z,100927.95
2019-06-10T19:03:19.088Z,100924.49
2019-06-10T19:05:52.932Z,100922.29
2019-06-10T19:08:25.758Z,100918.80
2019-06-10T19:10:58.011Z,100913.98
2019-06-10T19:13:33.928Z,100914.86
2019-06-10T19:16:04.572Z,100921.00
2019-06-10T19:18:37.859Z,100926.27
2019-06-10T19:21:12.915Z,100935.98
2019-06-10T19:23:44.349Z,100940.83
2019-06-10T19:26:18.608Z,100933.36
2019-06-10T19:28:53.352Z,100937.34
2019-06-10T19:31:25.303Z,100933.37
2019-06-10T19:33:57.598Z,100938.30
2019-06-10T19:36:29.835Z,100944.48
2019-06-10T19:39:02.400Z,100940.55
2019-06-10T19:41:38.302Z,100950.30
2019-06-10T19:44:13.005Z,100958.69
2019-06-10T19:46:45.075Z,100963.13
2019-06-10T19:49:17.599Z,100964.49
2019-06-10T19:51:52.453Z,100971.11
2019-06-10T19:54:24.001Z,100981.73
2019-06-10T19:56:56.362Z,100986.63
2019-06-10T19:59:28.640Z,100999.05
2019-06-10T20:02:03.242Z,100999.16
2019-06-10T20:04:36.145Z,101012.98
2019-06-10T20:07:08.660Z,101010.98
2019-06-10T20:09:43.298Z,101017.71
2019-06-10T20:12:14.856Z,101017.81
2019-06-10T20:14:47.887Z,101016.55
2019-06-10T20:17:22.618Z,101030.19
2019-06-10T20:19:54.491Z,101020.95
2019-06-10T20:22:26.699Z,101018.31
2019-06-10T20:24:59.011Z,101016.51
2019-06-10T20:27:33.041Z,101005.00
2019-06-10T20:30:20.551Z,100998.80
2019-06-10T20:32:41.508Z,100991.74
2019-06-10T20:35:13.089Z,100987.70
2019-06-10T20:37:47.242Z,100978.84
2019-06-10T20:40:19.280Z,100977.91
2019-06-10T20:42:51.685Z,100965.95
2019-06-10T20:45:23.928Z,100961.06
2019-06-10T20:47:56.189Z,100950.08
2019-06-10T20:50:28.398Z,100950.95
2019-06-10T20:53:13.832Z,100954.45
2019-06-10T20:55:42.460Z,100954.43
2019-06-10T20:58:08.533Z,100953.13
2019-06-10T21:00:46.505Z,100961.47
2019-06-10T21:03:14.689Z,100961.43
2019-06-10T21:05:47.719Z,100963.25
2019-06-10T21:08:22.524Z,100967.67
2019-06-10T21:10:54.950Z,100967.31
2019-06-10T21:13:27.429Z,100970.44
2019-06-10T21:15:59.644Z,100976.17
2019-06-10T21:18:32.997Z,100973.12
2019-06-10T21:21:05.503Z,100973.61
2019-06-10T21:23:37.734Z,100978.42
2019-06-10T21:26:12.431Z,100966.11
2019-06-10T21:28:47.358Z,100975.33
2019-06-10T21:31:17.870Z,100966.56
2019-06-10T21:33:51.810Z,100962.64
2019-06-10T21:36:24.081Z,100964.41
2019-06-10T21:38:56.319Z,100967.88
2019-06-10T21:41:28.998Z,100965.26
2019-06-10T21:44:03.096Z,100964.80
2019-06-10T21:46:35.202Z,100961.25
2019-06-10T21:49:07.588Z,100959.06
2019-06-10T21:51:39.825Z,100959.05
2019-06-10T21:54:12.105Z,100962.56
2019-06-10T21:56:45.646Z,100961.69
2019-06-10T21:59:19.387Z,100967.44
2019-06-10T22:01:51.643Z,100967.03
2019-06-10T22:04:23.854Z,100973.64
2019-06-10T22:06:56.440Z,100970.13
2019-06-10T22:09:28.811Z,100955.66
2019-06-10T22:12:02.944Z,100954.78
2019-06-10T22:14:34.962Z,100946.41
2019-06-10T22:17:07.205Z,100947.30
2019-06-10T22:19:39.429Z,100952.11
2019-06-10T22:22:12.981Z,100949.03
2019-06-10T22:24:45.244Z,100950.80
2019-06-10T22:27:17.491Z,100949.46
2019-06-10T22:29:49.708Z,100943.77
2019-06-10T22:32:22.002Z,100940.23
2019-06-10T22:34:55.821Z,100930.98
2019-06-10T22:37:28.178Z,100937.97
2019-06-10T22:40:03.075Z,100944.97
2019-06-10T22:42:35.401Z,100949.77
2019-06-10T22:45:07.784Z,100943.16
2019-06-10T22:47:40.026Z,100949.70
2019-06-10T22:50:12.668Z,100947.92
2019-06-10T22:52:44.965Z,100943.08
2019-06-10T22:55:17.806Z,100936.47
2019-06-10T22:57:51.755Z,100937.75
2019-06-10T23:00:24.119Z,100934.66
2019-06-10T23:02:57.683Z,100936.89
2019-06-10T23:05:30.420Z,100935.63
2019-06-10T23:08:02.630Z,100937.83
2019-06-10T23:10:34.856Z,100938.75
2019-06-10T23:13:08.193Z,100940.14
2019-06-10T23:15:42.654Z,100936.19
2019-06-10T23:18:14.436Z,100930.50
2019-06-10T23:20:46.644Z,100946.30
2019-06-10T23:23:18.873Z,100947.22
2019-06-10T23:25:51.707Z,100955.62
2019-06-10T23:28:24.272Z,100956.50
2019-06-10T23:30:58.883Z,100958.72
2019-06-10T23:33:32.378Z,100967.06
2019-06-10T23:36:04.398Z,100970.15
2019-06-10T23:38:36.623Z,100960.88
2019-06-10T23:41:08.832Z,100963.50
2019-06-10T23:43:42.319Z,100961.31
2019-06-10T23:46:14.698Z,100961.73
2019-06-10T23:48:46.931Z,100963.48
2019-06-10T23:51:19.185Z,100980.17
2019-06-10T23:53:56.303Z,100972.67
2019-06-10T23:56:25.384Z,100969.16
2019-06-10T23:59:00.395Z,100968.72
